Homer, OH (43027)

8:13 PM EST on February 27, 2015 (GMT -0500)
Homer | Change Station
CLOSE
Current Station
Personal Weather Station
Location: Utica, OH
Elevation: 1033 ft
Nearby Weather Stations

Elev 1033 ft 40.25 °N, 82.56 °W | Updated 12 minutes ago

Clear
Clear
2.0 °F
Feels Like 2 °F
N
0.0
Wind Variable Wind from NW
Gusts 0.0 mph

Today
High -- | Low -- °F
--% Chance of Precip.
Yesterday
High -- | Low -- °F
Precip. -- in
7:06 AM 6:19 PM
Waxing Gibbous, 73% visible
Pressure 30.59 in
Visibility 10.0 miles
Clouds Clear
Windchill 2 °F
Dew Point -4 °F
Humidity 74%
Rainfall -999.00 in
Snow Depth Not available.
UV 0 out of 12
Pollen .50 out of 12
Air Quality Not available.
Flu Activity Not available.
METAR K4I3 280056Z AUTO 29004KT 10SM CLR M14/M20 A3059 RMK AO2

More Conditions Fewer Conditions

Pressure 30.59 in
Visibility 10.0 miles
Clouds Clear
Windchill 2 °F
Dew Point -4 °F
Humidity 74%
Rainfall -999.00 in
Snow Depth Not available.
UV 0 out of 12
Pollen .50 out of 12
Air Quality Not available.
Flu Activity Not available.
METAR K4I3 280056Z AUTO 29004KT 10SM CLR M14/M20 A3059 RMK AO2

More Conditions Fewer Conditions

10-Day Weather Forecast

Almanac

Astronomy

Feb. 27, 2015 Rise Set
Actual Time
Civil Twilight
Nautical Twilight
Astronomical Twilight
Moon
Length of Visible Light
Length of Day
Tomorrow will be .
, % of the Moon is Illuminated

Today's Extremes

State Highs State Lows

Community

WunderPhotos

Upload Photos

1,800,914 photos uploaded!

WunderBlogs® & News

Nearby

Air Quality

  Air Quality AQ Index Pollutant
Not available.

Snow Depth

Station Depth Elevation

Earthquake Activity

City Distance Mag. Time & Date
Minimum magnitude displayed is 2.5.

Coastal Water Temperatures

Place Temperature

Nearby Weather Stations